TAF KDAB
AMD KDAB 080244Z 0803/0824 VRB04KT 4SM BR SCT003 SCT030 BKN250 FM080600 00000KT 2SM BR MIFG SCT002 SCT250 FM080900 00000KT 1/4SM FG VV002 FM081400 21006KT P6SM SCT020 BKN250=
METAR KDAB
WC KDAB
WS KDAB
WV KDAB